Time;durP1;ratioP1;P1;durP2;ratioP2;P2;SDS_P1;SDS_P2;PMS_P1;PMS_P2;Temp;Humidity;BMP_temperature;BMP_pressure;BME280_temperature;BME280_humidity;BME280_pressure;Samples;Min_cycle;Max_cycle;Signal;HPM_P1;HPM_P2
2022/06/03 00:01:22;;;;;;;1.20;1.20;;;;;;;12.50;73.52;101191.72;5052016;28;20212;-72
2022/06/03 00:04:07;;;;;;;1.90;1.80;;;;;;;12.43;73.81;101189.22;5032346;28;20673;-72
2022/06/03 00:06:50;;;;;;;1.60;1.50;;;;;;;12.34;74.20;101179.75;5032092;28;20212;-72
2022/06/03 00:09:55;;;;;;;1.73;1.63;;;;;;;12.36;73.68;101179.72;5031252;28;20228;-72
2022/06/03 00:12:47;;;;;;;1.73;1.60;;;;;;;12.31;74.09;101183.28;5031770;28;20204;-72
2022/06/03 00:15:25;;;;;;;2.20;2.10;;;;;;;12.27;73.93;101181.59;5031618;28;20250;-71
2022/06/03 00:18:10;;;;;;;1.70;1.60;;;;;;;12.26;74.21;101171.13;5031622;28;20653;-71
2022/06/03 00:20:56;;;;;;;1.70;1.60;;;;;;;12.19;73.92;101187.78;5031676;28;20204;-71
2022/06/03 00:23:51;;;;;;;1.60;1.50;;;;;;;12.17;74.33;101190.47;5032070;28;20200;-72
2022/06/03 00:26:34;;;;;;;1.90;1.80;;;;;;;12.17;74.26;101190.47;5030357;28;20208;-71
2022/06/03 00:29:21;;;;;;;1.60;1.50;;;;;;;12.12;74.30;101182.66;5033116;28;20220;-71
2022/06/03 00:32:05;;;;;;;1.83;1.70;;;;;;;12.11;73.73;101201.88;5043620;28;20735;-71
2022/06/03 00:34:53;;;;;;;2.70;2.07;;;;;;;12.04;74.04;101197.59;5051464;28;20231;-71
2022/06/03 00:37:31;;;;;;;1.70;1.60;;;;;;;12.06;73.93;101194.97;5051905;28;20265;-71
2022/06/03 00:40:05;;;;;;;1.87;1.77;;;;;;;11.96;74.89;101185.50;5051226;28;20299;-71
2022/06/03 00:42:57;;;;;;;1.77;1.67;;;;;;;11.91;74.93;101172.47;5051464;28;20243;-71
2022/06/03 00:45:39;;;;;;;2.00;1.90;;;;;;;11.88;75.29;101147.19;5047997;28;20223;-72
2022/06/03 00:48:23;;;;;;;1.83;1.73;;;;;;;11.85;75.60;101141.13;5042264;28;20207;-72
2022/06/03 00:51:00;;;;;;;1.83;1.73;;;;;;;11.77;75.67;101137.72;5045390;28;20215;-72
2022/06/03 00:54:01;;;;;;;1.80;1.70;;;;;;;11.80;75.83;101140.31;5046619;28;20195;-71
2022/06/03 00:56:59;;;;;;;1.70;1.60;;;;;;;11.77;76.25;101111.56;5042983;28;20754;-71
2022/06/03 00:59:43;;;;;;;1.93;1.83;;;;;;;11.75;75.68;101115.97;5048118;28;20259;-72
2022/06/03 01:02:26;;;;;;;2.37;1.90;;;;;;;11.75;76.09;101116.81;5052816;28;20211;-71
2022/06/03 01:05:07;;;;;;;2.20;2.00;;;;;;;11.81;75.42;101127.19;5045814;28;20652;-72
2022/06/03 01:07:48;;;;;;;1.90;1.80;;;;;;;11.79;75.43;101131.59;5046852;28;20204;-72
2022/06/03 01:10:34;;;;;;;1.80;1.70;;;;;;;11.77;75.95;101129.88;5045506;28;20229;-72
2022/06/03 01:13:22;;;;;;;2.30;2.20;;;;;;;11.65;76.45;101103.00;5045818;28;20216;-72
2022/06/03 01:15:58;;;;;;;2.30;2.20;;;;;;;11.49;77.20;101086.63;5045539;28;20277;-72
2022/06/03 01:18:38;;;;;;;2.67;2.07;;;;;;;11.37;78.63;101044.97;5045302;28;20720;-72
2022/06/03 01:21:19;;;;;;;2.20;2.00;;;;;;;11.42;77.72;101043.19;5045763;28;20249;-72
2022/06/03 01:24:15;;;;;;;3.60;2.30;;;;;;;11.43;77.27;101052.72;5045658;28;20200;-72
2022/06/03 01:27:11;;;;;;;1.80;1.70;;;;;;;11.41;77.18;101085.88;5037281;28;20206;-72
2022/06/03 01:29:54;;;;;;;2.27;2.07;;;;;;;11.42;77.26;101085.00;5048574;28;20208;-72
2022/06/03 01:32:55;;;;;;;2.10;2.00;;;;;;;11.36;77.21;101081.56;5049724;28;20205;-72
2022/06/03 01:36:03;;;;;;;2.00;1.90;;;;;;;11.31;77.73;101069.44;5045812;28;20227;-72
2022/06/03 01:38:44;;;;;;;2.90;2.70;;;;;;;11.28;78.10;101071.25;5045549;28;20201;-72
2022/06/03 01:41:33;;;;;;;2.30;2.10;;;;;;;11.29;77.36;101072.94;5044942;28;20209;-72
2022/06/03 01:44:22;;;;;;;2.70;2.50;;;;;;;11.21;77.57;101077.41;5044048;28;20236;-72
2022/06/03 01:47:11;;;;;;;2.53;2.37;;;;;;;11.25;77.43;101079.09;5044396;28;20321;-72
2022/06/03 01:50:01;;;;;;;2.47;2.27;;;;;;;11.15;77.94;101065.28;5043914;28;20211;-72
2022/06/03 01:52:49;;;;;;;2.50;2.40;;;;;;;11.22;77.95;101061.72;5044333;28;20253;-72
2022/06/03 01:55:40;;;;;;;4.97;2.50;;;;;;;11.12;78.19;101047.88;5034797;28;20217;-72
2022/06/03 01:58:20;;;;;;;2.67;2.57;;;;;;;11.11;77.97;101053.97;5044073;28;20247;-72
2022/06/03 02:00:54;;;;;;;2.23;2.10;;;;;;;11.03;78.29;101053.22;5049745;28;20196;-72
2022/06/03 02:03:42;;;;;;;2.83;2.57;;;;;;;10.89;79.30;101029.84;5045282;28;20193;-72
2022/06/03 02:07:00;;;;;;;3.20;3.00;;;;;;;10.86;78.35;101029.00;5043872;28;20203;-72
2022/06/03 02:10:17;;;;;;;2.60;2.40;;;;;;;10.86;79.10;101037.72;4988911;28;20742;-72
2022/06/03 02:13:05;;;;;;;3.20;2.93;;;;;;;10.83;79.00;101029.91;4989335;28;20243;-72
2022/06/03 02:15:57;;;;;;;3.00;2.80;;;;;;;10.85;78.50;101046.44;5043885;28;20273;-72
2022/06/03 02:18:53;;;;;;;2.40;2.20;;;;;;;10.87;78.27;101052.50;5022483;28;20209;-72
2022/06/03 02:21:57;;;;;;;2.33;2.23;;;;;;;10.76;79.10;101038.69;5043964;28;20326;-72
2022/06/03 02:25:05;;;;;;;2.80;2.60;;;;;;;10.80;78.83;101045.63;5042992;28;20221;-72
2022/06/03 02:28:19;;;;;;;3.17;2.80;;;;;;;10.68;79.41;101038.78;5039881;28;20199;-72
2022/06/03 02:31:21;;;;;;;2.33;2.23;;;;;;;10.70;79.59;101029.19;5050293;28;20233;-72
2022/06/03 02:34:29;;;;;;;3.23;2.97;;;;;;;10.75;78.47;101041.34;5032428;28;20260;-72
2022/06/03 02:37:38;;;;;;;3.00;2.77;;;;;;;10.70;78.29;101072.69;5032508;28;20207;-71
2022/06/03 02:40:26;;;;;;;2.67;2.57;;;;;;;10.65;78.90;101045.78;5032215;28;20204;-72
2022/06/03 02:43:32;;;;;;;3.40;3.20;;;;;;;10.62;79.44;101051.88;4997586;28;1030255;-71
2022/06/03 02:46:28;;;;;;;3.13;2.93;;;;;;;10.50;78.79;101044.16;5033299;28;20704;-72
2022/06/03 02:49:30;;;;;;;3.20;2.90;;;;;;;10.52;78.59;101058.94;5033522;28;20266;-71
2022/06/03 02:52:18;;;;;;;3.10;2.83;;;;;;;10.54;79.01;101045.84;5033852;28;20206;-71
2022/06/03 02:55:29;;;;;;;2.97;2.80;;;;;;;10.47;79.60;101031.16;5033403;28;20279;-71
2022/06/03 02:58:12;;;;;;;3.30;3.10;;;;;;;10.41;79.72;101026.84;5033667;28;20213;-72
2022/06/03 03:00:52;;;;;;;3.30;3.00;;;;;;;10.42;79.99;101015.50;5048119;28;20239;-72
2022/06/03 03:03:50;;;;;;;3.13;2.80;;;;;;;10.45;80.02;101006.81;5053454;28;20212;-72
2022/06/03 03:06:37;;;;;;;3.40;3.10;;;;;;;10.41;79.35;101037.28;5053524;28;20252;-71
2022/06/03 03:09:19;;;;;;;3.10;2.90;;;;;;;10.25;79.34;101053.91;5053019;28;20211;-71
2022/06/03 03:12:28;;;;;;;3.47;3.27;;;;;;;10.25;79.90;101033.91;5052362;28;20262;-71
2022/06/03 03:15:06;;;;;;;3.20;3.00;;;;;;;10.25;79.58;101026.06;5052928;28;20227;-71
2022/06/03 03:17:52;;;;;;;3.33;3.13;;;;;;;10.32;78.76;101038.19;5053467;28;20192;-71
2022/06/03 03:20:40;;;;;;;3.33;3.13;;;;;;;10.20;80.32;101027.84;5052729;28;20622;-72
2022/06/03 03:23:49;;;;;;;2.80;2.60;;;;;;;10.21;79.86;101011.31;5053153;28;20203;-72
2022/06/03 03:26:25;;;;;;;2.80;2.60;;;;;;;10.21;79.88;101029.59;5052323;28;20649;-71
2022/06/03 03:29:12;;;;;;;2.40;2.30;;;;;;;10.17;79.90;101030.50;5052540;28;20662;-70
2022/06/03 03:31:55;;;;;;;2.83;2.73;;;;;;;10.19;79.88;101033.97;5052784;28;20215;-71
2022/06/03 03:34:40;;;;;;;2.60;2.40;;;;;;;10.16;79.60;101031.34;5052581;28;20236;-71
2022/06/03 03:37:45;;;;;;;3.10;2.90;;;;;;;10.13;81.25;101010.53;5052816;28;20237;-71
2022/06/03 03:40:33;;;;;;;3.07;2.87;;;;;;;10.21;80.53;100998.28;5052353;28;20257;-71
2022/06/03 03:43:17;;;;;;;2.90;2.70;;;;;;;10.24;80.95;101002.59;5052451;28;20276;-71
2022/06/03 03:46:23;;;;;;;3.40;3.17;;;;;;;10.40;80.72;101012.03;5052533;28;20286;-71
2022/06/03 03:49:22;;;;;;;3.43;3.23;;;;;;;10.31;81.79;101005.19;5052291;28;20740;-71
2022/06/03 03:52:13;;;;;;;3.40;3.20;;;;;;;10.27;81.52;100993.00;5052619;28;20217;-71
2022/06/03 03:55:03;;;;;;;3.60;3.40;;;;;;;10.33;81.01;100997.34;5051969;28;20260;-71
2022/06/03 03:58:09;;;;;;;2.87;2.67;;;;;;;10.43;80.12;101027.69;5052295;28;20642;-71
2022/06/03 04:01:24;;;;;;;3.33;3.00;;;;;;;10.37;80.41;101025.16;5051803;28;20260;-72
2022/06/03 04:04:24;;;;;;;3.20;3.00;;;;;;;10.32;81.85;101001.69;5032470;28;20196;-72
2022/06/03 04:07:20;;;;;;;3.17;2.90;;;;;;;10.30;81.84;100986.91;5032022;28;20267;-72
2022/06/03 04:10:10;;;;;;;3.00;2.80;;;;;;;10.28;81.91;100979.06;5031580;28;20579;-72
2022/06/03 04:13:15;;;;;;;3.97;3.67;;;;;;;10.24;81.99;100968.69;5032350;28;20211;-72
2022/06/03 04:16:23;;;;;;;3.20;2.90;;;;;;;10.30;82.40;100951.25;5032087;28;20227;-72
2022/06/03 04:19:22;;;;;;;3.50;3.17;;;;;;;10.39;82.25;100952.06;5031519;28;20258;-72
2022/06/03 04:22:22;;;;;;;2.80;2.60;;;;;;;10.33;82.74;100963.41;5031889;28;20733;-72
2022/06/03 04:25:11;;;;;;;2.77;2.57;;;;;;;10.41;82.83;100948.56;5031528;28;20922;-72
2022/06/03 04:28:08;;;;;;;2.80;2.70;;;;;;;10.45;83.39;100944.16;5031780;28;20309;-71
2022/06/03 04:31:16;;;;;;;3.30;3.10;;;;;;;10.59;83.20;100952.72;5045324;28;20737;-72
2022/06/03 04:33:55;;;;;;;3.17;2.90;;;;;;;10.58;83.37;100947.50;5051892;28;20209;-72
2022/06/03 04:37:04;;;;;;;3.30;2.60;;;;;;;10.60;83.51;100943.13;5052005;28;20197;-72
2022/06/03 04:40:14;;;;;;;2.90;2.70;;;;;;;10.63;83.71;100943.09;5051443;28;20203;-71
2022/06/03 04:43:38;;;;;;;3.37;3.17;;;;;;;10.78;82.93;100940.28;5051639;28;20782;-72
2022/06/03 04:46:44;;;;;;;3.20;3.00;;;;;;;10.88;82.62;100954.13;5051751;28;20204;-72
2022/06/03 04:50:09;;;;;;;3.67;2.73;;;;;;;10.90;83.22;100950.63;5051054;28;20698;-72
2022/06/03 04:53:12;;;;;;;3.03;2.83;;;;;;;10.93;83.35;100939.25;5051873;28;20207;-72
2022/06/03 04:56:30;;;;;;;2.80;2.60;;;;;;;11.06;82.95;100958.25;5051267;28;20570;-71
2022/06/03 04:59:35;;;;;;;2.80;2.70;;;;;;;11.13;82.55;100970.34;5009105;28;20336;-71
2022/06/03 05:02:38;;;;;;;5.00;3.30;;;;;;;11.21;82.44;100978.09;5009158;28;20237;-71
2022/06/03 05:05:52;;;;;;;3.87;3.57;;;;;;;11.29;82.72;100979.72;5051646;28;20288;-72
2022/06/03 05:08:54;;;;;;;6.40;6.00;;;;;;;11.41;82.04;100994.38;5051470;28;20256;-71
2022/06/03 05:12:04;;;;;;;5.70;5.30;;;;;;;11.52;82.24;100989.03;5047512;28;20235;-71
2022/06/03 05:15:24;;;;;;;7.80;7.30;;;;;;;11.61;80.79;101020.25;5051384;28;20253;-71
2022/06/03 05:18:20;;;;;;;8.30;7.70;;;;;;;11.70;80.10;101040.19;5004133;28;20210;-72
2022/06/03 05:21:20;;;;;;;8.27;7.63;;;;;;;11.77;79.99;101049.66;5009088;28;20235;-72
2022/06/03 05:24:10;;;;;;;7.60;7.00;;;;;;;11.83;79.40;101067.03;5046112;28;20219;-72
2022/06/03 05:27:12;;;;;;;7.87;7.30;;;;;;;11.90;78.97;101079.19;5051019;28;20226;-72
2022/06/03 05:29:56;;;;;;;6.83;6.43;;;;;;;11.93;78.76;101076.50;5051053;28;20277;-72
2022/06/03 05:33:14;;;;;;;6.23;5.83;;;;;;;11.99;78.63;101086.03;5051338;28;20199;-72
2022/06/03 05:36:28;;;;;;;7.37;6.83;;;;;;;12.05;78.21;101105.13;5052553;28;20227;-72
2022/06/03 05:39:33;;;;;;;6.80;6.33;;;;;;;12.13;79.29;101091.94;5054618;28;20229;-72
2022/06/03 05:42:43;;;;;;;7.20;6.50;;;;;;;12.20;79.44;101083.09;5054581;28;20212;-72
2022/06/03 05:45:52;;;;;;;7.83;7.33;;;;;;;12.26;78.78;101083.00;5025066;28;20235;-72
2022/06/03 05:48:24;;;;;;;7.23;6.83;;;;;;;12.34;78.39;101089.88;5055005;28;20199;-70
2022/06/03 05:51:00;;;;;;;7.23;6.73;;;;;;;12.40;77.80;101115.94;5054535;28;20211;-71
2022/06/03 05:53:38;;;;;;;7.40;6.90;;;;;;;12.45;78.64;101106.28;5054778;28;20204;-72
2022/06/03 05:56:33;;;;;;;7.43;6.93;;;;;;;12.51;78.37;101112.28;5054546;28;20197;-72
2022/06/03 05:59:11;;;;;;;6.80;6.30;;;;;;;12.60;78.28;101107.78;5054275;28;20216;-71
2022/06/03 06:01:53;;;;;;;7.20;6.70;;;;;;;12.67;78.05;101112.03;5054055;28;20252;-72
2022/06/03 06:04:27;;;;;;;7.27;6.77;;;;;;;12.73;77.65;101122.41;5039492;28;20226;-72
2022/06/03 06:07:08;;;;;;;7.50;7.03;;;;;;;12.80;77.88;101110.91;5034372;28;20668;-71
2022/06/03 06:09:52;;;;;;;7.90;7.40;;;;;;;12.88;77.21;101131.75;5034342;28;20197;-72
2022/06/03 06:12:40;;;;;;;8.33;7.80;;;;;;;12.96;77.44;101140.31;5033752;28;20206;-71
2022/06/03 06:15:45;;;;;;;8.40;7.90;;;;;;;13.04;77.92;101134.97;5033886;28;20283;-71
2022/06/03 06:18:23;;;;;;;7.77;7.17;;;;;;;13.10;78.37;101108.63;5034360;28;20742;-71
2022/06/03 06:21:02;;;;;;;7.50;6.93;;;;;;;13.17;76.57;101143.47;5033703;28;20659;-72
2022/06/03 06:23:39;;;;;;;7.37;6.83;;;;;;;13.24;75.93;101169.56;5036830;28;20206;-72
2022/06/03 06:26:37;;;;;;;6.90;6.30;;;;;;;13.31;75.24;101189.53;5033779;28;20196;-72
2022/06/03 06:29:29;;;;;;;6.13;5.77;;;;;;;13.37;74.54;101214.78;5035626;28;20198;-71
2022/06/03 06:32:29;;;;;;;6.67;6.07;;;;;;;13.42;74.77;101228.69;5046764;28;20218;-71
2022/06/03 06:35:23;;;;;;;6.37;5.93;;;;;;;13.47;75.88;101191.88;5051605;28;20233;-72
2022/06/03 06:38:03;;;;;;;6.93;6.50;;;;;;;13.53;75.77;101178.66;5050592;28;20731;-72
2022/06/03 06:40:41;;;;;;;6.27;5.87;;;;;;;13.60;75.62;101187.28;5044043;28;20201;-72
2022/06/03 06:43:11;;;;;;;6.73;6.30;;;;;;;13.66;75.02;101190.66;5044198;28;20212;-72
2022/06/03 06:45:52;;;;;;;6.23;5.83;;;;;;;13.74;75.40;101187.03;5043296;28;20636;-72
2022/06/03 06:48:35;;;;;;;6.73;6.23;;;;;;;13.75;77.06;101129.25;5043098;28;20915;-72
2022/06/03 06:51:12;;;;;;;7.33;6.53;;;;;;;13.83;76.35;101127.31;5043816;28;20683;-72
2022/06/03 06:53:48;;;;;;;6.73;6.23;;;;;;;13.93;74.67;101169.13;5044210;28;20244;-72
2022/06/03 06:56:24;;;;;;;6.47;5.93;;;;;;;14.00;74.57;101189.97;5043684;28;20321;-72
2022/06/03 06:58:56;;;;;;;6.30;5.90;;;;;;;14.06;74.65;101191.59;5043872;28;20197;-72
2022/06/03 07:01:25;;;;;;;7.70;7.20;;;;;;;14.12;74.28;101201.97;5048253;28;20231;-72
2022/06/03 07:03:58;;;;;;;6.50;6.00;;;;;;;14.22;74.46;101214.00;5043766;28;20205;-72
2022/06/03 07:06:36;;;;;;;6.20;5.80;;;;;;;14.28;75.05;101197.25;5043817;28;20949;-72
2022/06/03 07:09:27;;;;;;;6.40;5.90;;;;;;;14.36;74.34;101184.78;5043743;28;20198;-72
2022/06/03 07:11:57;;;;;;;5.80;5.50;;;;;;;14.37;74.62;101209.28;5043260;28;20295;-72
2022/06/03 07:14:30;;;;;;;7.20;6.50;;;;;;;14.47;74.32;101208.22;5043113;28;20229;-72
2022/06/03 07:19:57;;;;;;;6.87;6.37;;;;;;;14.66;72.24;101248.09;5044174;28;20197;-72
2022/06/03 07:22:31;;;;;;;8.20;7.50;;;;;;;14.71;72.65;101264.63;5041861;28;20208;-72
2022/06/03 07:25:03;;;;;;;9.30;8.40;;;;;;;14.75;72.82;101247.03;5043232;28;20718;-72
2022/06/03 07:27:36;;;;;;;8.83;7.33;;;;;;;14.84;73.00;101239.75;5043081;28;20609;-72
2022/06/03 07:30:09;;;;;;;6.83;6.33;;;;;;;14.92;71.87;101259.75;5047763;28;20208;-72
2022/06/03 07:32:41;;;;;;;6.70;6.20;;;;;;;15.01;70.46;101296.34;5048298;28;20225;-72
2022/06/03 07:35:16;;;;;;;7.60;6.90;;;;;;;15.04;69.67;101312.94;5040965;28;20233;-72
2022/06/03 07:37:51;;;;;;;6.20;5.60;;;;;;;15.12;69.26;101335.53;5041485;28;20197;-72
2022/06/03 07:40:24;;;;;;;6.37;5.83;;;;;;;15.19;70.06;101321.34;5047294;28;20215;-79
2022/06/03 07:42:58;;;;;;;9.47;6.40;;;;;;;15.25;68.99;101343.09;5049223;28;20201;-79
2022/06/03 07:45:36;;;;;;;6.70;6.20;;;;;;;15.34;68.82;101349.91;5046847;28;20254;-78
2022/06/03 07:48:05;;;;;;;7.13;6.43;;;;;;;15.40;68.23;101367.28;5046081;28;20198;-78
2022/06/03 07:50:37;;;;;;;6.67;6.17;;;;;;;15.47;68.41;101358.38;5046712;28;20202;-79
2022/06/03 07:53:12;;;;;;;8.70;7.93;;;;;;;15.52;68.69;101356.50;5047021;28;20894;-79
2022/06/03 07:55:39;;;;;;;6.73;6.10;;;;;;;15.60;69.01;101328.22;5046434;28;20245;-79
2022/06/03 07:58:07;;;;;;;6.33;5.83;;;;;;;15.71;69.39;101316.53;5043946;28;20201;-79
2022/06/03 08:00:36;;;;;;;6.03;5.53;;;;;;;15.82;68.31;101322.44;5050430;28;20206;-79
2022/06/03 08:03:07;;;;;;;5.40;5.00;;;;;;;15.90;67.07;101357.31;5048652;28;20692;-79
2022/06/03 08:05:34;;;;;;;4.77;4.37;;;;;;;15.98;64.71;101402.75;5047418;28;20243;-79
2022/06/03 08:10:59;;;;;;;4.43;3.30;;;;;;;16.19;61.83;101545.31;5047528;28;20193;-79
2022/06/03 08:13:26;;;;;;;3.80;3.40;;;;;;;16.25;61.56;101548.69;5047070;28;20244;-79
2022/06/03 08:15:55;;;;;;;3.73;3.53;;;;;;;16.33;61.58;101566.91;5045914;28;20226;-78
2022/06/03 08:18:25;;;;;;;4.00;3.70;;;;;;;16.43;59.81;101575.47;5045371;28;20197;-79
2022/06/03 08:20:54;;;;;;;3.47;3.27;;;;;;;16.51;58.97;101606.91;5047689;28;20203;-79
2022/06/03 08:23:23;;;;;;;3.43;3.10;;;;;;;16.61;58.27;101634.75;5039407;28;20229;-78
2022/06/03 08:25:56;;;;;;;3.80;3.40;;;;;;;16.70;56.79;101681.16;5035983;28;20223;-79
2022/06/03 08:28:25;;;;;;;4.00;3.70;;;;;;;16.75;56.66;101705.59;5036938;28;20202;-79
2022/06/03 08:30:54;;;;;;;3.60;3.30;;;;;;;16.80;57.17;101686.13;5052170;28;20292;-79
2022/06/03 08:33:30;;;;;;;3.20;3.00;;;;;;;16.86;58.11;101686.00;5055972;28;20687;-79
2022/06/03 08:35:57;;;;;;;2.83;2.60;;;;;;;16.92;58.83;101623.47;5049128;28;20217;-79
2022/06/03 08:38:28;;;;;;;3.00;2.50;;;;;;;17.00;59.74;101639.97;5045755;28;20660;-79
2022/06/03 08:41:17;;;;;;;2.47;2.37;;;;;;;17.15;58.94;101601.75;5040615;28;20196;-80
2022/06/03 08:44:07;;;;;;;2.50;2.40;;;;;;;17.23;57.55;101663.09;5035472;28;20207;-79
2022/06/03 08:46:38;;;;;;;2.50;2.40;;;;;;;17.32;57.77;101661.97;5035384;28;20196;-80
2022/06/03 08:49:10;;;;;;;2.87;2.67;;;;;;;17.37;56.07;101668.88;5035566;28;20848;-80
2022/06/03 08:51:41;;;;;;;2.77;2.57;;;;;;;17.41;55.43;101696.91;5035635;28;20211;-79
2022/06/03 08:54:19;;;;;;;2.53;2.43;;;;;;;17.50;54.65;101726.59;5035599;28;20236;-79
2022/06/03 08:56:50;;;;;;;2.60;2.47;;;;;;;17.56;53.64;101761.66;5035096;28;20210;-79
2022/06/03 08:59:23;;;;;;;2.70;2.50;;;;;;;17.61;52.45;101795.84;5038933;28;20228;-79
2022/06/03 09:01:57;;;;;;;3.50;2.90;;;;;;;17.65;53.43;101808.91;5047821;28;20605;-80
2022/06/03 09:04:30;;;;;;;2.93;2.80;;;;;;;17.73;54.06;101771.72;5056337;28;20230;-79
2022/06/03 09:07:04;;;;;;;3.40;2.70;;;;;;;17.79;53.54;101763.63;5056258;28;20187;-79
2022/06/03 09:09:36;;;;;;;2.93;2.73;;;;;;;17.89;52.60;101782.78;5055264;28;20207;-79
2022/06/03 09:12:12;;;;;;;2.33;2.07;;;;;;;17.98;53.86;101779.03;5059343;28;20256;-79
2022/06/03 09:14:41;;;;;;;2.77;2.53;;;;;;;18.09;52.40;101770.78;5058864;28;20288;-79
2022/06/03 09:17:25;;;;;;;2.27;2.10;;;;;;;18.12;53.25;101784.78;5058792;28;20206;-79
2022/06/03 09:19:55;;;;;;;1.83;1.73;;;;;;;18.21;52.96;101758.06;5058641;28;20195;-79
2022/06/03 09:22:26;;;;;;;2.03;1.90;;;;;;;18.27;53.16;101801.94;5058528;28;20204;-79
2022/06/03 09:24:56;;;;;;;2.50;2.30;;;;;;;18.32;52.84;101751.59;5048090;28;20728;-79
2022/06/03 09:27:27;;;;;;;2.80;2.60;;;;;;;18.38;50.73;101785.78;5050094;28;20213;-79
2022/06/03 09:29:57;;;;;;;2.10;2.00;;;;;;;18.45;51.10;101826.97;5051305;28;20209;-79
2022/06/03 09:32:27;;;;;;;2.73;2.23;;;;;;;18.51;52.08;101823.28;5058484;28;20235;-79
2022/06/03 09:34:57;;;;;;;2.00;1.90;;;;;;;18.57;52.19;101751.69;5058911;28;20228;-80
2022/06/03 09:37:32;;;;;;;2.33;2.13;;;;;;;18.65;51.33;101758.50;5059066;28;20585;-80
2022/06/03 09:40:01;;;;;;;1.90;1.80;;;;;;;18.72;51.28;101796.19;5058702;28;20216;-79
2022/06/03 09:42:32;;;;;;;1.87;1.73;;;;;;;18.78;51.72;101798.63;5057764;28;20559;-79
2022/06/03 09:45:02;;;;;;;3.09;1.90;;;;;;;18.83;50.87;101809.97;4360546;28;10021641;-79
2022/06/03 09:47:30;;;;;;;1.70;1.60;;;;;;;18.89;50.57;101821.28;5055548;28;20932;-79
2022/06/03 09:49:56;;;;;;;2.17;1.70;;;;;;;18.96;50.47;101823.69;5054902;28;20245;-79
2022/06/03 09:52:27;;;;;;;2.40;2.30;;;;;;;19.00;50.33;101814.72;5054992;28;20285;-79
2022/06/03 09:54:55;;;;;;;2.27;2.13;;;;;;;19.06;50.54;101805.72;5055551;28;20317;-80
2022/06/03 09:57:27;;;;;;;3.20;2.10;;;;;;;19.11;52.57;101790.56;5054967;28;20242;-79
2022/06/03 09:59:57;;;;;;;7.13;2.00;;;;;;;19.21;51.72;101769.97;5054961;28;20266;-79
2022/06/03 10:02:26;;;;;;;2.27;1.87;;;;;;;19.27;49.83;101769.75;5055500;28;21041;-79
2022/06/03 10:04:52;;;;;;;2.27;2.07;;;;;;;19.33;48.88;101811.03;5055591;28;20304;-79
2022/06/03 10:07:19;;;;;;;1.70;1.60;;;;;;;19.39;48.88;101834.66;5055170;28;20216;-79
2022/06/03 10:12:52;;;;;;;2.03;1.73;;;;;;;19.57;49.68;101799.59;5053694;28;20219;-79
2022/06/03 10:15:39;;;;;;;1.90;1.80;;;;;;;19.70;50.54;101792.09;5054725;28;20232;-80
2022/06/03 10:18:23;;;;;;;2.33;2.13;;;;;;;19.77;48.38;101800.72;5054346;28;20193;-80
2022/06/03 10:20:50;;;;;;;1.90;1.80;;;;;;;19.83;48.72;101840.25;5050918;28;20220;-79
2022/06/03 10:23:20;;;;;;;3.20;2.00;;;;;;;19.89;48.62;101845.31;5054525;28;20212;-79
2022/06/03 10:25:49;;;;;;;3.03;2.20;;;;;;;19.99;49.00;101829.97;5054578;28;20254;-79
2022/06/03 10:28:16;;;;;;;1.90;1.80;;;;;;;20.09;48.51;101820.75;5054795;28;20215;-80
2022/06/03 10:30:46;;;;;;;4.23;2.23;;;;;;;20.19;48.19;101822.13;5054096;28;20215;-80
2022/06/03 10:33:17;;;;;;;2.47;2.23;;;;;;;20.32;48.69;101821.69;5046925;28;20230;-79
2022/06/03 10:35:44;;;;;;;2.43;2.27;;;;;;;20.36;47.96;101823.31;5044970;28;20413;-80
2022/06/03 10:38:10;;;;;;;2.60;2.40;;;;;;;20.44;48.00;101830.03;5048526;28;20262;-80
2022/06/03 10:40:39;;;;;;;3.50;2.70;;;;;;;20.49;47.88;101835.16;5053361;28;20207;-79
2022/06/03 10:43:06;;;;;;;3.33;2.40;;;;;;;20.44;47.85;101790.25;5053070;28;20220;-79
2022/06/03 10:45:35;;;;;;;2.43;2.30;;;;;;;20.51;47.39;101820.03;5054296;28;20232;-79
2022/06/03 10:48:19;;;;;;;2.07;1.97;;;;;;;20.53;47.22;101815.53;5054255;28;20212;-80
2022/06/03 10:50:45;;;;;;;2.70;2.50;;;;;;;20.65;46.90;101826.66;5053620;28;20639;-78
2022/06/03 11:01:33;;;;;;;2.60;2.40;;;;;;;21.00;45.92;101849.16;5051451;28;20242;-80
2022/06/03 11:04:01;;;;;;;2.30;2.10;;;;;;;21.03;45.50;101860.53;5053207;28;20233;-79
2022/06/03 11:06:37;;;;;;;2.87;2.03;;;;;;;21.12;45.56;101843.34;5053373;28;20212;-80
2022/06/03 11:09:07;;;;;;;1.97;1.87;;;;;;;21.23;44.90;101850.88;5053228;28;20235;-79
2022/06/03 11:11:42;;;;;;;1.97;1.87;;;;;;;21.32;45.18;101857.59;5053353;28;20264;-79
2022/06/03 11:14:34;;;;;;;2.20;2.10;;;;;;;21.42;44.49;101832.38;5053554;28;20263;-80
2022/06/03 11:17:05;;;;;;;2.40;2.20;;;;;;;21.56;44.48;101839.78;5052942;28;20216;-80
2022/06/03 11:19:35;;;;;;;2.40;2.30;;;;;;;21.64;45.12;101811.09;5052632;28;20216;-80
2022/06/03 11:22:23;;;;;;;2.30;2.10;;;;;;;21.75;45.02;101813.28;5052844;28;20247;-80
2022/06/03 11:24:55;;;;;;;2.63;1.70;;;;;;;21.90;43.79;101819.72;5053695;28;20227;-79
2022/06/03 11:27:27;;;;;;;1.90;1.80;;;;;;;22.07;43.77;101864.19;5048905;28;20713;-80
2022/06/03 11:29:57;;;;;;;2.57;2.20;;;;;;;22.29;43.56;101867.63;5041605;28;20204;-80
2022/06/03 11:32:27;;;;;;;1.93;1.83;;;;;;;22.94;42.33;101856.63;5051800;28;20260;-80
2022/06/03 11:35:01;;;;;;;2.27;2.17;;;;;;;23.98;40.38;101882.56;5052380;28;20233;-77
2022/06/03 11:37:30;;;;;;;2.03;1.77;;;;;;;25.14;39.03;101963.53;5052522;28;20234;-78
2022/06/03 11:40:03;;;;;;;2.20;2.00;;;;;;;26.47;36.84;101993.31;5052649;28;20217;-78
2022/06/03 11:42:36;;;;;;;2.40;2.20;;;;;;;27.71;33.79;102025.66;5051978;28;20772;-78
2022/06/03 11:45:11;;;;;;;2.23;2.10;;;;;;;28.98;30.95;102093.16;5053336;28;20229;-78
2022/06/03 11:47:48;;;;;;;3.83;2.97;;;;;;;29.79;30.36;102117.91;5052303;28;20203;-78
2022/06/03 11:50:19;;;;;;;2.83;2.63;;;;;;;30.93;28.59;102129.03;5051374;28;20273;-78
2022/06/03 11:52:50;;;;;;;2.70;2.50;;;;;;;31.73;27.13;102133.41;5052261;28;20186;-78
2022/06/03 11:55:17;;;;;;;2.20;2.10;;;;;;;31.57;27.04;102114.91;5052652;28;20229;-77
2022/06/03 11:57:51;;;;;;;2.30;2.20;;;;;;;30.98;27.74;102097.16;5051603;28;20259;-77
2022/06/03 12:00:20;;;;;;;2.10;2.00;;;;;;;30.09;28.49;102087.84;5050959;28;20614;-78
2022/06/03 12:02:59;;;;;;;2.40;2.20;;;;;;;29.37;28.72;102025.88;5043311;28;20221;-77
2022/06/03 12:05:33;;;;;;;2.23;2.03;;;;;;;28.43;30.76;101994.91;5051166;28;20228;-77
2022/06/03 12:08:07;;;;;;;2.10;2.00;;;;;;;27.68;32.37;101941.81;5050608;28;20632;-77
2022/06/03 12:10:45;;;;;;;2.43;2.27;;;;;;;26.81;34.20;101908.19;5050780;28;20255;-78
2022/06/03 12:13:17;;;;;;;4.30;2.20;;;;;;;26.34;34.78;101852.16;5050843;28;20215;-79
2022/06/03 12:16:06;;;;;;;2.10;2.00;;;;;;;26.35;34.86;101808.34;5051097;28;20233;-77
2022/06/03 12:18:57;;;;;;;2.07;1.87;;;;;;;26.91;34.55;101783.34;5047625;28;20209;-77
2022/06/03 12:22:03;;;;;;;1.90;1.80;;;;;;;27.67;35.46;101797.88;5050746;28;20295;-78
2022/06/03 12:24:42;;;;;;;2.10;1.90;;;;;;;28.35;32.50;101795.81;5043832;28;20224;-78
2022/06/03 12:27:32;;;;;;;2.27;2.17;;;;;;;28.27;31.47;101836.66;5051044;28;20186;-77
2022/06/03 12:30:27;;;;;;;2.40;2.20;;;;;;;27.78;32.24;101840.94;5047199;28;20201;-77
2022/06/03 12:32:57;;;;;;;2.20;2.10;;;;;;;27.13;33.00;101822.97;5042910;28;20213;-76
2022/06/03 12:36:10;;;;;;;3.10;2.90;;;;;;;26.73;33.53;101796.16;5051123;28;20232;-79
2022/06/03 12:38:45;;;;;;;2.30;2.10;;;;;;;26.78;33.82;101764.56;5051467;28;20251;-76
2022/06/03 12:41:51;;;;;;;2.27;2.00;;;;;;;27.18;34.89;101794.06;5049416;28;20223;-76
2022/06/03 12:44:48;;;;;;;2.00;1.90;;;;;;;27.69;33.84;101771.81;5051021;28;20229;-77
2022/06/03 12:47:50;;;;;;;1.90;1.80;;;;;;;27.79;33.54;101775.56;5034097;28;20264;-77
2022/06/03 12:50:27;;;;;;;2.10;2.00;;;;;;;27.88;32.23;101771.41;5001866;28;20668;-76
2022/06/03 12:52:59;;;;;;;2.30;2.10;;;;;;;27.94;32.38;101779.03;5034035;28;20618;-77
2022/06/03 12:55:28;;;;;;;1.77;1.67;;;;;;;28.02;31.62;101791.91;5034550;28;20230;-77
2022/06/03 12:57:58;;;;;;;2.10;1.90;;;;;;;28.03;32.90;101813.28;5034055;28;20213;-77